createdAt,value
2024-02-07T00:02:03.069Z,10.38
2024-02-07T00:04:29.929Z,16.35
2024-02-07T00:06:56.766Z,14.43
2024-02-07T00:09:23.510Z,10.50
2024-02-07T00:11:50.205Z,13.55
2024-02-07T00:14:18.165Z,11.98
2024-02-07T00:16:44.825Z,12.60
2024-02-07T00:19:11.592Z,10.25
2024-02-07T00:21:38.334Z,11.02
2024-02-07T00:24:06.263Z,9.27
2024-02-07T00:26:32.886Z,12.32
2024-02-07T00:28:59.558Z,13.25
2024-02-07T00:31:28.004Z,8.05
2024-02-07T00:33:54.688Z,8.10
2024-02-07T00:36:21.399Z,8.00
2024-02-07T00:38:48.091Z,10.80
2024-02-07T00:41:21.758Z,9.38
2024-02-07T00:43:48.582Z,7.97
2024-02-07T00:46:15.353Z,8.07
2024-02-07T00:48:43.424Z,8.35
2024-02-07T00:51:10.434Z,8.55
2024-02-07T00:53:37.507Z,6.43
2024-02-07T00:56:04.693Z,12.57
2024-02-07T00:58:31.625Z,9.60
2024-02-07T01:00:58.554Z,2.58
2024-02-07T01:03:25.287Z,3.45
2024-02-07T01:05:53.681Z,3.65
2024-02-07T01:08:21.531Z,2.10
2024-02-07T01:10:48.383Z,1.85
2024-02-07T01:13:15.101Z,0.70
2024-02-07T01:15:42.050Z,1.27
2024-02-07T01:18:08.697Z,1.45
2024-02-07T01:20:35.762Z,1.00
2024-02-07T01:23:04.133Z,1.92
2024-02-07T01:25:30.869Z,1.60
2024-02-07T01:27:57.493Z,0.85
2024-02-07T01:30:24.115Z,0.25
2024-02-07T01:32:50.898Z,0.73
2024-02-07T01:35:17.691Z,0.20
2024-02-07T01:37:44.657Z,0.85
2024-02-07T01:40:14.159Z,0.57
2024-02-07T01:42:42.311Z,0.47
2024-02-07T01:45:22.983Z,0.47
2024-02-07T01:47:50.365Z,2.90
2024-02-07T01:50:17.391Z,0.57
2024-02-07T01:52:45.360Z,1.90
2024-02-07T01:55:14.660Z,0.80
2024-02-07T01:57:42.116Z,1.05
2024-02-07T02:00:10.361Z,1.42
2024-02-07T02:02:37.136Z,1.00
2024-02-07T02:05:04.313Z,1.90
2024-02-07T02:07:31.633Z,1.17
2024-02-07T02:09:58.348Z,1.58
2024-02-07T02:12:27.381Z,6.43
2024-02-07T02:14:54.252Z,1.55
2024-02-07T02:17:21.024Z,2.63
2024-02-07T02:19:47.781Z,0.22
2024-02-07T02:22:34.640Z,2.33
2024-02-07T02:25:26.935Z,1.25
2024-02-07T02:28:02.412Z,2.25
2024-02-07T02:30:32.093Z,0.95
2024-02-07T02:32:59.662Z,1.38
2024-02-07T02:35:26.851Z,1.75
2024-02-07T02:37:53.536Z,4.90
2024-02-07T02:40:20.343Z,4.47
2024-02-07T02:42:47.039Z,2.60
2024-02-07T02:45:13.916Z,0.47
2024-02-07T02:47:41.898Z,1.55
2024-02-07T02:50:09.479Z,1.73
2024-02-07T02:52:36.155Z,4.45
2024-02-07T02:55:02.792Z,3.15
2024-02-07T02:57:29.509Z,2.92
2024-02-07T02:59:56.176Z,3.42
2024-02-07T03:02:22.860Z,2.55
2024-02-07T03:04:51.069Z,2.50
2024-02-07T03:07:17.928Z,2.13
2024-02-07T03:09:47.490Z,2.38
2024-02-07T03:12:14.243Z,1.65
2024-02-07T03:14:40.883Z,3.40
2024-02-07T03:17:07.493Z,1.73
2024-02-07T03:19:34.131Z,2.92
2024-02-07T03:22:02.165Z,2.25
2024-02-07T03:24:28.763Z,2.97
2024-02-07T03:26:55.500Z,4.28
2024-02-07T03:29:22.285Z,4.15
2024-02-07T03:31:48.995Z,3.63
2024-02-07T03:34:15.813Z,1.08
2024-02-07T03:36:42.536Z,4.75
2024-02-07T03:39:10.508Z,1.52
2024-02-07T03:41:37.098Z,5.15
2024-02-07T03:44:03.966Z,4.63
2024-02-07T03:46:30.662Z,4.88
2024-02-07T03:48:57.386Z,3.70
2024-02-07T03:51:24.249Z,2.45
2024-02-07T03:53:51.057Z,2.58
2024-02-07T03:56:19.078Z,2.80
2024-02-07T03:58:45.766Z,5.60
2024-02-07T04:01:12.503Z,4.85
2024-02-07T04:03:39.122Z,1.65
2024-02-07T04:06:06.060Z,2.28
2024-02-07T04:08:33.727Z,5.22
2024-02-07T04:11:02.628Z,3.42
2024-02-07T04:13:30.710Z,9.40
2024-02-07T04:15:57.582Z,3.25
2024-02-07T04:18:24.257Z,3.28
2024-02-07T04:20:52.267Z,3.67
2024-02-07T04:23:18.898Z,3.45
2024-02-07T04:25:45.633Z,9.90
2024-02-07T04:28:12.314Z,2.83
2024-02-07T04:30:40.307Z,3.50
2024-02-07T04:33:07.012Z,5.75
2024-02-07T04:35:33.694Z,4.68
2024-02-07T04:38:00.351Z,5.25
2024-02-07T04:40:27.060Z,1.02
2024-02-07T04:42:54.076Z,4.90
2024-02-07T04:45:20.686Z,4.25
2024-02-07T04:47:48.726Z,5.68
2024-02-07T04:50:15.619Z,4.70
2024-02-07T04:52:42.984Z,2.03
2024-02-07T04:55:09.645Z,4.50
2024-02-07T04:57:36.456Z,3.05
2024-02-07T05:00:03.467Z,3.38
2024-02-07T05:02:30.178Z,5.18
2024-02-07T05:04:58.289Z,4.65
2024-02-07T05:07:25.005Z,4.35
2024-02-07T05:09:51.849Z,2.78
2024-02-07T05:12:18.423Z,3.20
2024-02-07T05:14:45.021Z,4.03
2024-02-07T05:17:11.626Z,6.00
2024-02-07T05:19:38.484Z,2.85
2024-02-07T05:22:06.729Z,4.78
2024-02-07T05:24:33.309Z,5.40
2024-02-07T05:27:00.036Z,5.30
2024-02-07T05:29:26.656Z,3.92
2024-02-07T05:31:55.527Z,5.82
2024-02-07T05:34:23.378Z,5.65
2024-02-07T05:36:50.099Z,4.85
2024-02-07T05:39:18.327Z,4.40
2024-02-07T05:41:45.074Z,6.15
2024-02-07T05:44:11.747Z,3.88
2024-02-07T05:46:38.756Z,5.55
2024-02-07T05:49:05.973Z,6.80
2024-02-07T05:51:32.651Z,3.17
2024-02-07T05:53:59.471Z,4.22
2024-02-07T05:56:27.458Z,5.60
2024-02-07T05:58:54.130Z,8.18
2024-02-07T06:01:20.956Z,3.55
2024-02-07T06:03:47.627Z,5.18
2024-02-07T06:06:14.401Z,3.72
2024-02-07T06:08:40.990Z,6.90
2024-02-07T06:11:07.627Z,6.03
2024-02-07T06:13:39.001Z,2.55
2024-02-07T06:16:05.921Z,4.45
2024-02-07T06:18:32.624Z,5.75
2024-02-07T06:20:59.373Z,8.52
2024-02-07T06:23:25.972Z,7.15
2024-02-07T06:25:52.798Z,8.35
2024-02-07T06:28:19.643Z,8.32
2024-02-07T06:30:49.079Z,7.30
2024-02-07T06:33:15.781Z,5.10
2024-02-07T06:35:43.595Z,8.85
2024-02-07T06:38:10.265Z,6.15
2024-02-07T06:40:37.072Z,6.50
2024-02-07T06:43:04.021Z,4.65
2024-02-07T06:45:30.748Z,8.68
2024-02-07T06:47:58.744Z,5.28
2024-02-07T06:50:25.789Z,4.70
2024-02-07T06:52:52.598Z,6.25
2024-02-07T06:55:19.271Z,7.45
2024-02-07T06:57:46.125Z,13.73
2024-02-07T07:00:14.044Z,11.20
2024-02-07T07:02:40.987Z,11.65
2024-02-07T07:05:09.744Z,6.18
2024-02-07T07:07:36.548Z,6.75
2024-02-07T07:10:03.688Z,7.70
2024-02-07T07:12:30.275Z,6.25
2024-02-07T07:14:56.934Z,10.65
2024-02-07T07:17:23.744Z,11.40
2024-02-07T07:19:50.592Z,7.10
2024-02-07T07:22:18.819Z,11.10
2024-02-07T07:24:45.423Z,10.77
2024-02-07T07:27:12.229Z,11.13
2024-02-07T07:29:38.868Z,11.88
2024-02-07T07:32:05.872Z,10.18
2024-02-07T07:34:32.557Z,14.02
2024-02-07T07:36:59.425Z,9.70
2024-02-07T07:39:27.449Z,10.75
2024-02-07T07:41:54.117Z,11.35
2024-02-07T07:44:20.770Z,12.65
2024-02-07T07:46:47.412Z,9.98
2024-02-07T07:49:14.349Z,8.02
2024-02-07T07:51:41.117Z,10.15
2024-02-07T07:54:08.058Z,7.53
2024-02-07T07:56:36.208Z,11.77
2024-02-07T07:59:03.239Z,9.82
2024-02-07T08:01:30.056Z,11.45
2024-02-07T08:03:56.822Z,12.73
2024-02-07T08:06:23.870Z,10.90
2024-02-07T08:08:51.040Z,13.45
2024-02-07T08:11:17.712Z,12.27
2024-02-07T08:13:46.005Z,12.80
2024-02-07T08:16:12.859Z,11.65
2024-02-07T08:18:39.607Z,15.95
2024-02-07T08:21:06.317Z,8.95
2024-02-07T08:23:32.936Z,9.88
2024-02-07T08:25:59.703Z,14.38
2024-02-07T08:28:26.572Z,12.30
2024-02-07T08:30:54.537Z,19.00
2024-02-07T08:33:21.410Z,11.07
2024-02-07T08:35:49.015Z,13.63
2024-02-07T08:38:15.922Z,9.73
2024-02-07T08:40:42.779Z,10.60
2024-02-07T08:43:09.519Z,10.20
2024-02-07T08:45:36.486Z,11.18
2024-02-07T08:48:05.881Z,14.07
2024-02-07T08:50:32.635Z,7.88
2024-02-07T08:52:59.287Z,8.55
2024-02-07T08:55:26.001Z,9.65
2024-02-07T08:57:52.655Z,11.07
2024-02-07T09:00:19.419Z,13.05
2024-02-07T09:02:46.227Z,9.85
2024-02-07T09:05:14.434Z,13.43
2024-02-07T09:07:41.266Z,12.13
2024-02-07T09:10:08.444Z,11.57
2024-02-07T09:12:35.033Z,15.98
2024-02-07T09:15:01.864Z,10.57
2024-02-07T09:17:28.533Z,10.88
2024-02-07T09:19:55.201Z,14.57
2024-02-07T09:22:23.294Z,10.20
2024-02-07T09:24:49.984Z,10.05
2024-02-07T09:27:16.684Z,13.15
2024-02-07T09:29:43.314Z,9.02
2024-02-07T09:32:10.053Z,15.77
2024-02-07T09:34:36.776Z,20.85
2024-02-07T09:37:03.837Z,10.65
2024-02-07T09:39:31.743Z,18.58
2024-02-07T09:42:02.407Z,10.32
2024-02-07T09:44:31.794Z,12.75
2024-02-07T09:47:01.575Z,12.07
2024-02-07T09:49:29.271Z,19.08
2024-02-07T09:51:57.249Z,13.63
2024-02-07T09:54:25.488Z,14.15
2024-02-07T09:56:53.973Z,15.40
2024-02-07T09:59:21.521Z,10.98
2024-02-07T10:01:48.441Z,20.80
2024-02-07T10:04:18.418Z,19.85
2024-02-07T10:06:46.506Z,14.02
2024-02-07T10:09:13.772Z,14.60
2024-02-07T10:11:41.662Z,15.50
2024-02-07T10:14:11.205Z,16.38
2024-02-07T10:16:37.847Z,14.05
2024-02-07T10:19:04.907Z,14.57
2024-02-07T10:21:34.645Z,17.30
2024-02-07T10:24:01.519Z,16.50
2024-02-07T10:26:28.239Z,19.35
2024-02-07T10:28:59.113Z,12.52
2024-02-07T10:31:27.323Z,12.15
2024-02-07T10:33:54.249Z,12.68
2024-02-07T10:36:23.350Z,19.50
2024-02-07T10:38:51.845Z,11.57
2024-02-07T10:41:18.648Z,15.98
2024-02-07T10:43:45.345Z,19.17
2024-02-07T10:46:12.570Z,10.10
2024-02-07T10:48:42.194Z,12.88
2024-02-07T10:51:09.089Z,11.32
2024-02-07T10:53:37.225Z,15.32
2024-02-07T10:56:05.015Z,14.52
2024-02-07T10:58:32.231Z,15.68
2024-02-07T11:00:59.428Z,12.50
2024-02-07T11:03:27.392Z,12.73
2024-02-07T11:05:55.831Z,18.17
2024-02-07T11:08:22.684Z,15.68
2024-02-07T11:10:49.858Z,11.77
2024-02-07T11:13:16.897Z,19.08
2024-02-07T11:15:43.626Z,18.33
2024-02-07T11:18:12.654Z,13.90
2024-02-07T11:20:40.175Z,8.82
2024-02-07T11:23:14.022Z,12.93
2024-02-07T11:25:43.262Z,16.88
2024-02-07T11:28:12.983Z,15.38
2024-02-07T11:30:40.770Z,14.05
2024-02-07T11:33:10.988Z,13.02
2024-02-07T11:35:37.942Z,35.72
2024-02-07T11:38:04.980Z,8.00
2024-02-07T11:40:39.686Z,15.23
2024-02-07T11:43:06.434Z,17.23
2024-02-07T11:45:37.200Z,12.27
2024-02-07T11:48:04.392Z,14.55
2024-02-07T11:50:35.340Z,15.52
2024-02-07T11:53:03.501Z,11.27
2024-02-07T11:55:41.433Z,15.80
2024-02-07T11:58:09.073Z,19.33
2024-02-07T12:00:35.967Z,11.77
2024-02-07T12:03:03.068Z,8.35
2024-02-07T12:05:29.897Z,10.18
2024-02-07T12:07:56.847Z,11.48
2024-02-07T12:10:24.676Z,9.98
2024-02-07T12:12:52.840Z,16.38
2024-02-07T12:15:19.616Z,9.77
2024-02-07T12:17:47.435Z,10.15
2024-02-07T12:20:14.618Z,14.45
2024-02-07T12:22:41.554Z,8.57
2024-02-07T12:25:15.376Z,7.75
2024-02-07T12:27:42.257Z,11.15
2024-02-07T12:30:11.766Z,13.30
2024-02-07T12:32:39.976Z,13.90
2024-02-07T12:35:08.145Z,11.90
2024-02-07T12:37:34.910Z,7.57
2024-02-07T12:40:02.082Z,6.68
2024-02-07T12:42:29.337Z,18.17
2024-02-07T12:44:55.965Z,12.40
2024-02-07T12:47:24.791Z,16.25
2024-02-07T12:49:52.687Z,13.45
2024-02-07T12:52:21.380Z,8.07
2024-02-07T12:54:48.601Z,7.75
2024-02-07T12:57:22.029Z,11.95
2024-02-07T12:59:48.707Z,8.75
2024-02-07T13:02:16.092Z,13.60
2024-02-07T13:04:44.446Z,15.45
2024-02-07T13:07:11.829Z,9.18
2024-02-07T13:09:39.615Z,12.50
2024-02-07T13:12:14.336Z,15.10
2024-02-07T13:14:50.104Z,12.88
2024-02-07T13:17:16.700Z,15.55
2024-02-07T13:19:45.176Z,12.80
2024-02-07T13:22:12.075Z,10.48
2024-02-07T13:24:38.676Z,14.13
2024-02-07T13:27:05.800Z,10.32
2024-02-07T13:29:32.484Z,10.32
2024-02-07T13:31:59.147Z,8.43
2024-02-07T13:34:25.926Z,14.30
2024-02-07T13:36:54.006Z,8.43
2024-02-07T13:39:20.656Z,10.40
2024-02-07T13:41:47.983Z,10.20
2024-02-07T13:44:14.554Z,7.88
2024-02-07T13:46:41.299Z,10.73
2024-02-07T13:49:07.966Z,10.82
2024-02-07T13:51:34.860Z,6.90
2024-02-07T13:54:03.161Z,6.65
2024-02-07T13:56:29.801Z,7.10
2024-02-07T13:58:56.474Z,7.95
2024-02-07T14:01:23.232Z,6.65
2024-02-07T14:03:49.919Z,6.25
2024-02-07T14:06:16.611Z,9.57
2024-02-07T14:08:43.314Z,9.40
2024-02-07T14:11:11.732Z,12.38
2024-02-07T14:13:38.540Z,5.32
2024-02-07T14:16:05.531Z,9.27
2024-02-07T14:18:32.133Z,6.88
2024-02-07T14:20:58.738Z,11.90
2024-02-07T14:23:25.343Z,8.27
2024-02-07T14:25:52.020Z,5.32
2024-02-07T14:28:20.157Z,8.27
2024-02-07T14:30:46.901Z,11.68
2024-02-07T14:33:13.827Z,12.30
2024-02-07T14:35:40.672Z,11.68
2024-02-07T14:38:07.400Z,7.03
2024-02-07T14:40:34.093Z,8.32
2024-02-07T14:43:00.753Z,3.53
2024-02-07T14:45:28.853Z,11.55
2024-02-07T14:47:55.578Z,12.55
2024-02-07T14:50:22.495Z,8.82
2024-02-07T14:52:49.405Z,9.45
2024-02-07T14:55:16.117Z,8.38
2024-02-07T14:57:42.809Z,7.50
2024-02-07T15:00:10.168Z,6.60
2024-02-07T15:02:38.117Z,9.02
2024-02-07T15:05:05.317Z,9.60
2024-02-07T15:07:31.984Z,8.45
2024-02-07T15:09:58.671Z,10.50
2024-02-07T15:12:25.264Z,12.88
2024-02-07T15:14:51.951Z,7.03
2024-02-07T15:17:18.635Z,8.02
2024-02-07T15:19:46.712Z,7.15
2024-02-07T15:22:13.381Z,6.15
2024-02-07T15:24:40.065Z,10.77
2024-02-07T15:27:06.669Z,12.95
2024-02-07T15:29:33.348Z,9.45
2024-02-07T15:32:00.166Z,6.85
2024-02-07T15:34:27.001Z,10.48
2024-02-07T15:36:55.281Z,7.45
2024-02-07T15:39:21.910Z,14.18
2024-02-07T15:41:48.608Z,7.50
2024-02-07T15:44:15.232Z,10.32
2024-02-07T15:46:41.930Z,8.63
2024-02-07T15:49:10.026Z,10.52
2024-02-07T15:51:37.136Z,8.63
2024-02-07T15:54:05.294Z,8.63
2024-02-07T15:56:32.217Z,5.43
2024-02-07T15:58:58.981Z,10.68
2024-02-07T16:01:36.341Z,16.15
2024-02-07T16:04:08.319Z,11.57
2024-02-07T16:06:35.486Z,13.63
2024-02-07T16:09:02.626Z,10.02
2024-02-07T16:11:30.623Z,12.55
2024-02-07T16:13:57.453Z,20.85
2024-02-07T16:16:24.182Z,10.98
2024-02-07T16:18:50.816Z,13.23
2024-02-07T16:21:17.556Z,8.00
2024-02-07T16:23:44.167Z,9.77
2024-02-07T16:26:10.789Z,11.63
2024-02-07T16:28:38.971Z,14.85
2024-02-07T16:31:07.215Z,13.05
2024-02-07T16:33:33.916Z,13.43
2024-02-07T16:36:00.773Z,11.77
2024-02-07T16:38:27.457Z,12.35
2024-02-07T16:40:54.180Z,9.77
2024-02-07T16:43:20.826Z,10.57
2024-02-07T16:45:48.908Z,13.25
2024-02-07T16:48:15.711Z,12.43
2024-02-07T16:50:42.695Z,11.20
2024-02-07T16:53:09.365Z,11.93
2024-02-07T16:55:36.064Z,9.48
2024-02-07T16:58:02.794Z,12.60
2024-02-07T17:00:29.492Z,12.48
2024-02-07T17:02:57.494Z,14.23
2024-02-07T17:05:24.305Z,9.13
2024-02-07T17:07:50.976Z,11.57
2024-02-07T17:10:18.148Z,11.40
2024-02-07T17:12:45.065Z,18.02
2024-02-07T17:15:11.681Z,17.73
2024-02-07T17:17:38.405Z,19.83
2024-02-07T17:20:07.719Z,16.55
2024-02-07T17:22:34.364Z,20.85
2024-02-07T17:25:01.392Z,22.98
2024-02-07T17:27:28.137Z,19.02
2024-02-07T17:29:58.618Z,19.50
2024-02-07T17:32:29.886Z,13.90
2024-02-07T17:34:56.559Z,21.23
2024-02-07T17:37:24.752Z,21.80
2024-02-07T17:39:51.460Z,22.38
2024-02-07T17:42:21.749Z,24.88
2024-02-07T17:44:49.848Z,37.63
2024-02-07T17:47:16.478Z,25.55
2024-02-07T17:49:44.434Z,22.80
2024-02-07T17:52:11.137Z,18.85
2024-02-07T17:54:39.149Z,23.33
2024-02-07T17:57:05.740Z,23.77
2024-02-07T17:59:32.406Z,27.90
2024-02-07T18:01:59.093Z,21.90
2024-02-07T18:04:25.895Z,14.95
2024-02-07T18:06:52.640Z,25.52
2024-02-07T18:09:19.234Z,23.30
2024-02-07T18:11:47.336Z,27.52
2024-02-07T18:14:14.044Z,33.80
2024-02-07T18:16:40.805Z,34.22
2024-02-07T18:19:07.481Z,28.88
2024-02-07T18:21:34.139Z,26.85
2024-02-07T18:24:00.771Z,20.75
2024-02-07T18:26:27.317Z,17.33
2024-02-07T18:28:55.606Z,20.25
2024-02-07T18:31:23.438Z,18.08
2024-02-07T18:33:51.709Z,17.00
2024-02-07T18:36:18.321Z,19.25
2024-02-07T18:38:44.953Z,21.67
2024-02-07T18:41:11.828Z,18.75
2024-02-07T18:43:38.518Z,16.55
2024-02-07T18:46:06.518Z,20.80
2024-02-07T18:48:33.360Z,18.85
2024-02-07T18:51:00.139Z,17.23
2024-02-07T18:53:26.770Z,14.68
2024-02-07T18:55:53.437Z,22.23
2024-02-07T18:58:20.137Z,13.27
2024-02-07T19:00:46.780Z,10.18
2024-02-07T19:03:14.774Z,9.57
2024-02-07T19:05:41.726Z,19.90
2024-02-07T19:08:08.585Z,14.63
2024-02-07T19:10:35.278Z,10.80
2024-02-07T19:13:03.202Z,14.35
2024-02-07T19:15:29.837Z,15.05
2024-02-07T19:17:56.640Z,11.30
2024-02-07T19:20:25.125Z,16.00
2024-02-07T19:22:51.922Z,21.58
2024-02-07T19:25:18.645Z,18.25
2024-02-07T19:27:45.285Z,19.67
2024-02-07T19:30:13.087Z,13.57
2024-02-07T19:32:39.719Z,13.07
2024-02-07T19:35:07.616Z,13.40
2024-02-07T19:37:35.736Z,8.68
2024-02-07T19:40:02.609Z,15.27
2024-02-07T19:42:29.320Z,7.30
2024-02-07T19:44:56.225Z,12.63
2024-02-07T19:47:22.926Z,13.98
2024-02-07T19:49:49.602Z,15.13
2024-02-07T19:52:16.361Z,14.15
2024-02-07T19:54:44.472Z,10.38
2024-02-07T19:57:11.146Z,15.18
2024-02-07T19:59:37.794Z,11.32
2024-02-07T20:02:04.817Z,11.10
2024-02-07T20:04:31.508Z,12.85
2024-02-07T20:06:58.166Z,12.63
2024-02-07T20:09:24.800Z,13.52
2024-02-07T20:11:52.847Z,13.00
2024-02-07T20:14:19.451Z,9.27
2024-02-07T20:16:46.174Z,7.20
2024-02-07T20:19:12.997Z,10.27
2024-02-07T20:21:39.711Z,10.32
2024-02-07T20:24:06.826Z,13.80
2024-02-07T20:26:33.559Z,11.05
2024-02-07T20:29:01.505Z,19.10
2024-02-07T20:31:28.182Z,15.50
2024-02-07T20:33:55.162Z,13.50
2024-02-07T20:36:21.824Z,14.98
2024-02-07T20:38:48.893Z,18.10
2024-02-07T20:41:15.632Z,15.40
2024-02-07T20:43:42.259Z,15.60
2024-02-07T20:46:10.456Z,14.82
2024-02-07T20:48:39.936Z,10.38
2024-02-07T20:51:08.987Z,14.82
2024-02-07T20:53:35.624Z,8.13
2024-02-07T20:56:02.375Z,11.13
2024-02-07T20:58:29.043Z,11.23
2024-02-07T21:00:55.707Z,10.32
2024-02-07T21:03:23.779Z,15.73
2024-02-07T21:05:50.421Z,12.45
2024-02-07T21:08:17.052Z,13.57
2024-02-07T21:10:43.823Z,9.98
2024-02-07T21:13:10.565Z,13.60
2024-02-07T21:15:37.225Z,10.45
2024-02-07T21:18:04.430Z,11.25
2024-02-07T21:20:32.431Z,13.90
2024-02-07T21:22:59.482Z,13.70
2024-02-07T21:25:26.163Z,13.90
2024-02-07T21:27:52.822Z,6.32
2024-02-07T21:30:19.493Z,9.23
2024-02-07T21:32:46.195Z,7.20
2024-02-07T21:35:13.011Z,8.13
2024-02-07T21:37:41.156Z,10.02
2024-02-07T21:40:08.724Z,11.07
2024-02-07T21:42:35.361Z,7.05
2024-02-07T21:45:04.036Z,11.98
2024-02-07T21:47:31.194Z,8.57
2024-02-07T21:49:58.085Z,13.70
2024-02-07T21:52:24.797Z,11.10
2024-02-07T21:54:52.821Z,16.00
2024-02-07T21:57:19.405Z,22.83
2024-02-07T21:59:46.061Z,27.77
2024-02-07T22:02:12.809Z,25.42
2024-02-07T22:04:39.589Z,17.85
2024-02-07T22:07:06.380Z,16.98
2024-02-07T22:09:33.059Z,17.48
2024-02-07T22:12:02.158Z,11.90
2024-02-07T22:14:29.812Z,25.67
2024-02-07T22:16:56.639Z,16.08
2024-02-07T22:19:23.407Z,15.98
2024-02-07T22:21:50.145Z,13.63
2024-02-07T22:24:16.744Z,14.40
2024-02-07T22:26:43.612Z,16.92
2024-02-07T22:29:11.658Z,14.48
2024-02-07T22:31:38.403Z,15.13
2024-02-07T22:34:05.402Z,18.33
2024-02-07T22:36:32.060Z,10.88
2024-02-07T22:38:58.785Z,10.57
2024-02-07T22:41:25.539Z,10.10
2024-02-07T22:43:52.201Z,13.13
2024-02-07T22:46:20.234Z,14.25
2024-02-07T22:48:47.092Z,10.10
2024-02-07T22:51:14.319Z,9.95
2024-02-07T22:53:41.141Z,9.15
2024-02-07T22:56:08.013Z,13.95
2024-02-07T22:58:34.676Z,15.23
2024-02-07T23:01:01.413Z,12.98
2024-02-07T23:03:29.512Z,15.18
2024-02-07T23:05:56.273Z,9.13
2024-02-07T23:08:23.184Z,10.32
2024-02-07T23:10:49.966Z,9.90
2024-02-07T23:13:16.681Z,7.32
2024-02-07T23:15:43.345Z,8.23
2024-02-07T23:18:10.055Z,10.27
2024-02-07T23:20:38.208Z,13.43
2024-02-07T23:23:05.010Z,18.95
2024-02-07T23:25:31.685Z,9.27
2024-02-07T23:27:58.302Z,11.38
2024-02-07T23:30:24.909Z,11.27
2024-02-07T23:32:51.578Z,7.88
2024-02-07T23:35:18.271Z,11.85
2024-02-07T23:37:46.997Z,9.27
2024-02-07T23:40:14.118Z,11.75
2024-02-07T23:42:40.755Z,7.13
2024-02-07T23:45:07.901Z,8.90
2024-02-07T23:47:34.559Z,10.02
2024-02-07T23:50:01.258Z,8.60
2024-02-07T23:52:28.042Z,5.85
2024-02-07T23:54:56.140Z,4.97
2024-02-07T23:57:22.847Z,10.63
2024-02-07T23:59:49.478Z,8.32
